Time;durP1;ratioP1;P1;durP2;ratioP2;P2;SDS_P1;SDS_P2;PMS_P1;PMS_P2;Temp;Humidity;BMP_temperature;BMP_pressure;BME280_temperature;BME280_humidity;BME280_pressure;Samples;Min_cycle;Max_cycle;Signal;HPM_P1;HPM_P2
2023/05/31 00:00:54;;;;;;;2.92;1.83;;;;;;;16.06;41.67;101037.13;5110612;28;20200;-59
2023/05/31 00:03:23;;;;;;;3.83;1.42;;;;;;;16.03;41.56;101037.19;5105205;28;20685;-60
2023/05/31 00:05:51;;;;;;;2.95;2.03;;;;;;;15.98;41.42;101034.66;5108579;27;20246;-60
2023/05/31 00:08:19;;;;;;;4.70;2.15;;;;;;;15.90;41.30;101026.97;5109447;28;20557;-59
2023/05/31 00:10:47;;;;;;;4.20;2.15;;;;;;;15.87;41.63;101028.78;5109113;28;20207;-62
2023/05/31 00:13:15;;;;;;;5.07;2.42;;;;;;;15.81;40.97;101029.75;5109603;28;20685;-60
2023/05/31 00:15:43;;;;;;;3.50;1.92;;;;;;;15.78;41.42;101034.16;5110325;28;20310;-60
2023/05/31 00:18:10;;;;;;;2.25;1.70;;;;;;;15.74;41.79;101038.53;5107055;28;20212;-60
2023/05/31 00:20:40;;;;;;;3.33;1.60;;;;;;;15.72;41.37;101042.88;5108853;28;20272;-60
2023/05/31 00:23:08;;;;;;;2.78;1.70;;;;;;;15.67;41.54;101040.38;5103753;28;20282;-59
2023/05/31 00:25:36;;;;;;;9.48;2.08;;;;;;;15.58;41.81;101042.25;5110959;28;20204;-59
2023/05/31 00:28:04;;;;;;;5.03;2.10;;;;;;;15.49;41.61;101037.19;5109744;28;20227;-61
2023/05/31 00:30:32;;;;;;;3.22;2.05;;;;;;;15.46;41.71;101032.88;5108744;28;20635;-60
2023/05/31 00:33:00;;;;;;;2.45;1.85;;;;;;;15.49;42.29;101032.00;5108555;28;20228;-60
2023/05/31 00:35:28;;;;;;;3.05;1.50;;;;;;;15.48;41.63;101032.88;5113390;28;20564;-60
2023/05/31 00:37:57;;;;;;;3.28;1.63;;;;;;;15.45;41.93;101032.03;5112573;27;20694;-59
2023/05/31 00:40:25;;;;;;;3.80;1.63;;;;;;;15.42;42.24;101037.28;5113121;28;20210;-60
2023/05/31 00:42:53;;;;;;;3.97;1.80;;;;;;;15.39;42.60;101041.66;5114292;28;20208;-60
2023/05/31 00:45:21;;;;;;;4.18;1.50;;;;;;;15.37;42.03;101036.50;5114089;28;20304;-60
2023/05/31 00:47:48;;;;;;;4.32;1.75;;;;;;;15.41;42.80;101035.56;5113853;28;20192;-59
2023/05/31 00:50:17;;;;;;;2.78;2.03;;;;;;;15.44;42.10;101039.88;5112577;28;20200;-59
2023/05/31 00:52:46;;;;;;;6.47;2.63;;;;;;;15.51;42.26;101043.22;5113568;28;20215;-59
2023/05/31 00:55:17;;;;;;;4.72;1.85;;;;;;;15.53;42.42;101034.50;5110907;27;20203;-60
2023/05/31 00:57:45;;;;;;;5.60;2.33;;;;;;;15.59;42.12;101033.56;5114042;28;20208;-61
2023/05/31 01:00:14;;;;;;;3.38;1.90;;;;;;;15.64;41.95;101042.13;5111674;28;20196;-63
2023/05/31 01:02:43;;;;;;;4.10;1.92;;;;;;;15.69;41.75;101040.38;5109696;28;20208;-64
2023/05/31 01:05:11;;;;;;;3.90;1.90;;;;;;;15.65;41.66;101036.06;5110562;28;20667;-63
2023/05/31 01:07:39;;;;;;;4.55;2.03;;;;;;;15.62;42.05;101043.91;5112646;28;20200;-63
2023/05/31 01:10:08;;;;;;;3.72;1.83;;;;;;;15.59;42.02;101039.63;5113221;28;20562;-63
2023/05/31 01:12:46;;;;;;;4.43;1.90;;;;;;;15.54;41.81;101046.63;5112844;27;20204;-63
2023/05/31 01:15:20;;;;;;;4.40;1.73;;;;;;;15.53;42.48;101054.44;5110955;28;20200;-63
2023/05/31 01:17:52;;;;;;;4.32;1.60;;;;;;;15.48;42.39;101051.06;5112896;28;20216;-63
2023/05/31 01:20:25;;;;;;;2.70;1.70;;;;;;;15.40;42.20;101049.44;5112902;28;20283;-64
2023/05/31 01:23:05;;;;;;;4.05;1.60;;;;;;;15.33;42.82;101055.63;5113389;28;20611;-63
2023/05/31 01:26:26;;;;;;;2.17;1.27;;;;;;;15.29;42.40;101055.69;5113068;28;20199;-62
2023/05/31 01:29:00;;;;;;;2.25;1.50;;;;;;;15.19;42.88;101057.53;5076053;27;20243;-61
2023/05/31 01:31:32;;;;;;;2.65;1.52;;;;;;;15.13;42.63;101060.22;5106787;28;20200;-63
2023/05/31 01:34:01;;;;;;;3.60;1.40;;;;;;;15.10;43.10;101065.47;5109862;28;20328;-63
2023/05/31 01:36:29;;;;;;;2.28;1.45;;;;;;;15.11;43.29;101067.19;5113999;28;20203;-67
2023/05/31 01:38:57;;;;;;;1.73;1.38;;;;;;;15.14;43.24;101068.00;5109586;28;20212;-62
2023/05/31 01:41:27;;;;;;;3.28;1.50;;;;;;;15.13;43.17;101074.09;5113238;28;20204;-62
2023/05/31 01:43:57;;;;;;;2.53;1.40;;;;;;;15.08;42.64;101077.59;5108602;28;20559;-62
2023/05/31 01:46:26;;;;;;;2.08;1.45;;;;;;;15.02;43.11;101072.50;5107968;27;20208;-61
2023/05/31 01:48:55;;;;;;;2.33;1.40;;;;;;;14.95;43.31;101075.19;5107794;28;20550;-63
2023/05/31 01:51:23;;;;;;;3.95;1.52;;;;;;;14.89;43.29;101077.84;5111077;28;20202;-62
2023/05/31 01:53:51;;;;;;;2.97;1.48;;;;;;;14.89;44.23;101080.44;5112368;28;20200;-63
2023/05/31 01:56:22;;;;;;;3.05;1.65;;;;;;;14.93;43.98;101066.53;5113367;28;20571;-62
2023/05/31 01:58:51;;;;;;;2.97;1.50;;;;;;;14.96;43.39;101063.06;5102295;28;20263;-62
2023/05/31 02:01:21;;;;;;;5.57;1.60;;;;;;;15.00;44.06;101079.47;5106762;28;20202;-61
2023/05/31 02:03:50;;;;;;;2.75;1.40;;;;;;;15.04;44.10;101074.19;5109491;28;20639;-63
2023/05/31 02:06:18;;;;;;;5.95;1.40;;;;;;;15.07;44.02;101076.75;5110459;28;20579;-62
2023/05/31 02:08:46;;;;;;;1.80;1.20;;;;;;;15.12;43.92;101071.50;5111843;28;20292;-62
2023/05/31 02:11:14;;;;;;;3.63;1.50;;;;;;;15.16;43.85;101068.81;5112745;28;20670;-67
2023/05/31 02:13:42;;;;;;;2.17;1.38;;;;;;;15.19;43.48;101080.91;5113372;28;20298;-63
2023/05/31 02:16:10;;;;;;;3.33;1.30;;;;;;;15.19;43.91;101083.50;5111086;28;20530;-64
2023/05/31 02:18:39;;;;;;;2.67;1.60;;;;;;;15.18;43.94;101079.22;5117303;27;20678;-62
2023/05/31 02:21:07;;;;;;;2.22;1.40;;;;;;;15.14;44.11;101073.19;5112737;28;20630;-62
2023/05/31 02:23:35;;;;;;;4.22;1.45;;;;;;;15.14;43.99;101080.13;5111691;28;20212;-62
2023/05/31 02:26:03;;;;;;;3.35;1.70;;;;;;;15.11;43.72;101073.22;5111322;28;20214;-63
2023/05/31 02:28:31;;;;;;;2.17;1.50;;;;;;;15.08;43.73;101073.28;5111117;28;20196;-63
2023/05/31 02:31:00;;;;;;;3.95;1.20;;;;;;;15.09;44.31;101081.91;5111044;28;20200;-63
2023/05/31 02:33:30;;;;;;;2.40;1.33;;;;;;;15.12;44.06;101087.91;5108134;28;20236;-63
2023/05/31 02:35:59;;;;;;;5.05;1.58;;;;;;;15.12;44.15;101084.47;5112395;28;20582;-62
2023/05/31 02:38:28;;;;;;;2.92;1.48;;;;;;;15.12;44.50;101089.66;5109724;28;20591;-63
2023/05/31 02:40:55;;;;;;;1.58;1.48;;;;;;;15.09;43.98;101090.56;5111880;28;22357;-62
2023/05/31 02:43:23;;;;;;;4.10;1.80;;;;;;;15.04;44.36;101086.31;5104945;28;20192;-64
2023/05/31 02:45:51;;;;;;;1.48;1.35;;;;;;;15.03;44.44;101087.22;5112939;28;20203;-63
2023/05/31 02:48:19;;;;;;;5.43;1.30;;;;;;;15.02;44.84;101098.44;5111016;28;20199;-62
2023/05/31 02:50:47;;;;;;;3.80;1.60;;;;;;;14.99;44.68;101086.38;5110516;27;20294;-63
2023/05/31 02:53:16;;;;;;;3.05;1.45;;;;;;;15.01;44.80;101099.34;5111492;28;20216;-63
2023/05/31 02:55:44;;;;;;;4.20;1.40;;;;;;;15.05;45.14;101094.06;5109430;28;20215;-61
2023/05/31 02:58:14;;;;;;;4.15;1.60;;;;;;;15.07;44.62;101097.53;5110481;28;20253;-65
2023/05/31 03:00:42;;;;;;;2.67;1.38;;;;;;;15.06;44.79;101100.13;5105910;28;20214;-63
2023/05/31 03:03:12;;;;;;;3.53;1.60;;;;;;;15.07;45.07;101091.47;5110870;28;20203;-64
2023/05/31 03:05:40;;;;;;;4.28;1.95;;;;;;;15.05;45.31;101095.81;5108201;28;20200;-63
2023/05/31 03:08:08;;;;;;;6.15;2.45;;;;;;;15.06;45.38;101097.53;5105254;28;20565;-62
2023/05/31 03:10:37;;;;;;;5.43;2.03;;;;;;;15.01;44.88;101104.53;5111016;28;20210;-63
2023/05/31 03:13:05;;;;;;;4.18;1.67;;;;;;;14.96;45.11;101105.44;5111314;28;20210;-62
2023/05/31 03:15:32;;;;;;;2.85;1.50;;;;;;;14.92;45.69;101108.97;5110504;28;20207;-64
2023/05/31 03:18:00;;;;;;;3.22;1.55;;;;;;;14.92;45.18;101113.28;5105918;28;20295;-65
2023/05/31 03:20:30;;;;;;;3.83;1.60;;;;;;;14.89;45.45;101109.00;5109650;28;20210;-63
2023/05/31 03:22:58;;;;;;;3.00;1.67;;;;;;;14.84;45.45;101107.31;5108441;28;20204;-62
2023/05/31 03:25:26;;;;;;;2.53;1.63;;;;;;;14.77;46.13;101114.34;5110323;28;20684;-64
2023/05/31 03:27:57;;;;;;;2.10;1.40;;;;;;;14.69;45.84;101110.94;5110048;28;20210;-63
2023/05/31 03:30:24;;;;;;;2.30;1.45;;;;;;;14.65;46.05;101110.13;5112118;28;20211;-63
2023/05/31 03:32:52;;;;;;;4.93;1.33;;;;;;;14.65;46.15;101109.28;5105812;28;20779;-64
2023/05/31 03:35:20;;;;;;;5.60;1.60;;;;;;;14.67;46.50;101103.19;5103394;28;20208;-62
2023/05/31 03:37:48;;;;;;;3.78;1.50;;;;;;;14.67;46.37;101105.78;5104478;28;20231;-62
2023/05/31 03:40:16;;;;;;;3.30;1.30;;;;;;;14.67;45.90;101105.78;5108106;28;20686;-63
2023/05/31 03:42:44;;;;;;;4.43;1.63;;;;;;;14.67;45.75;101104.94;5106972;28;20215;-62
2023/05/31 03:45:14;;;;;;;2.10;1.20;;;;;;;14.69;45.38;101106.66;5111746;28;20214;-64
2023/05/31 03:47:42;;;;;;;2.08;1.40;;;;;;;14.70;45.69;101107.50;5109246;28;20211;-63
2023/05/31 03:50:11;;;;;;;4.43;1.40;;;;;;;14.65;45.50;101110.13;5109682;28;20287;-62
2023/05/31 03:52:39;;;;;;;4.80;1.40;;;;;;;14.57;45.68;101111.09;5107551;28;20727;-62
2023/05/31 03:55:08;;;;;;;3.10;1.52;;;;;;;14.50;46.39;101115.47;5109038;28;20664;-63
2023/05/31 03:57:36;;;;;;;1.77;1.55;;;;;;;14.50;46.42;101113.75;5111022;28;20659;-63
2023/05/31 04:00:04;;;;;;;2.90;1.02;;;;;;;14.50;46.46;101108.56;5109608;28;20235;-63
2023/05/31 04:02:33;;;;;;;3.63;1.40;;;;;;;14.47;46.83;101112.88;5110713;28;20570;-65
2023/05/31 04:05:01;;;;;;;2.72;1.27;;;;;;;14.44;46.29;101113.78;5109818;28;20295;-63
2023/05/31 04:07:29;;;;;;;3.88;1.30;;;;;;;14.38;46.76;101111.25;5109821;28;20196;-66
2023/05/31 04:09:57;;;;;;;2.67;1.20;;;;;;;14.41;46.89;101111.22;5107335;28;20322;-66
2023/05/31 04:12:25;;;;;;;1.15;1.02;;;;;;;14.45;46.76;101112.91;5104937;28;20204;-63
2023/05/31 04:14:53;;;;;;;1.63;1.33;;;;;;;14.50;46.64;101111.16;5109715;28;20215;-63
2023/05/31 04:17:20;;;;;;;3.67;1.30;;;;;;;14.58;46.85;101115.41;5110672;28;20287;-63
2023/05/31 04:19:51;;;;;;;3.80;1.10;;;;;;;14.65;46.49;101115.31;5110384;28;20223;-62
2023/05/31 04:22:20;;;;;;;2.30;1.52;;;;;;;14.65;46.34;101109.28;5107972;28;20196;-62
2023/05/31 04:24:48;;;;;;;2.90;1.40;;;;;;;14.64;46.43;101112.75;5105511;28;20701;-63
2023/05/31 04:27:18;;;;;;;2.53;1.20;;;;;;;14.58;46.35;101107.63;5107856;28;20666;-63
2023/05/31 04:29:46;;;;;;;1.95;1.27;;;;;;;14.58;46.90;101112.81;5107391;28;20208;-66
2023/05/31 04:32:15;;;;;;;2.20;0.95;;;;;;;14.65;46.52;101106.66;5102857;28;20199;-63
2023/05/31 04:34:43;;;;;;;2.75;1.10;;;;;;;14.71;46.05;101106.63;5108753;28;20199;-62
2023/05/31 04:37:12;;;;;;;4.50;1.40;;;;;;;14.80;45.82;101103.94;5104640;28;20204;-64
2023/05/31 04:39:40;;;;;;;3.65;1.25;;;;;;;14.91;45.72;101099.47;5107668;28;20590;-62
2023/05/31 04:42:11;;;;;;;1.73;1.10;;;;;;;15.00;44.69;101105.41;5106669;28;20210;-63
2023/05/31 04:44:39;;;;;;;3.83;1.58;;;;;;;15.03;45.11;101110.56;5108540;28;20204;-67
2023/05/31 04:47:08;;;;;;;3.05;1.20;;;;;;;15.07;45.25;101099.25;5104760;28;20212;-66
2023/05/31 04:49:36;;;;;;;3.22;1.33;;;;;;;15.15;44.79;101107.81;5109780;28;20571;-64
2023/05/31 04:52:22;;;;;;;1.85;1.13;;;;;;;15.09;44.60;101113.06;5107352;28;20203;-64
2023/05/31 04:54:50;;;;;;;2.63;1.02;;;;;;;15.04;44.84;101112.28;5108533;28;20203;-63
2023/05/31 04:57:18;;;;;;;3.00;1.35;;;;;;;14.98;45.20;101105.41;5105442;28;20211;-62
2023/05/31 04:59:46;;;;;;;3.15;1.42;;;;;;;15.05;45.22;101103.59;5107272;28;20228;-61
2023/05/31 05:02:14;;;;;;;4.20;1.42;;;;;;;15.21;45.80;101094.75;5102325;28;20219;-63
2023/05/31 05:04:42;;;;;;;3.92;1.20;;;;;;;15.39;45.05;101102.28;5097162;28;20200;-63
2023/05/31 05:07:10;;;;;;;3.67;1.40;;;;;;;15.49;44.59;101095.19;5105016;28;20204;-62
2023/05/31 05:09:39;;;;;;;3.92;1.75;;;;;;;15.54;44.74;101098.59;5108899;28;20890;-63
2023/05/31 05:12:08;;;;;;;2.75;1.42;;;;;;;15.62;44.82;101095.88;5100216;28;20208;-63
2023/05/31 05:14:36;;;;;;;1.90;1.05;;;;;;;15.72;44.35;101094.00;5106344;28;20208;-62
2023/05/31 05:17:05;;;;;;;1.92;1.00;;;;;;;15.90;43.66;101099.75;5092480;28;20212;-68
2023/05/31 05:19:34;;;;;;;2.95;1.30;;;;;;;16.08;43.58;101096.00;5100690;28;20259;-67
2023/05/31 05:22:02;;;;;;;5.00;1.35;;;;;;;16.24;42.68;101093.13;5107260;27;20203;-63
2023/05/31 05:24:30;;;;;;;6.90;1.60;;;;;;;16.47;42.50;101085.75;5108932;28;20237;-59
2023/05/31 05:27:00;;;;;;;3.42;1.38;;;;;;;16.74;41.39;101096.53;5110686;28;20231;-60
2023/05/31 05:29:28;;;;;;;4.75;1.63;;;;;;;16.92;41.45;101097.91;5109110;28;20242;-61
2023/05/31 05:31:56;;;;;;;3.65;2.00;;;;;;;17.11;41.38;101094.00;5107379;28;20210;-59
2023/05/31 05:34:24;;;;;;;6.40;1.63;;;;;;;17.37;40.61;101096.03;5107190;28;20200;-59
2023/05/31 05:36:52;;;;;;;3.17;1.20;;;;;;;17.60;39.83;101096.38;5109089;28;20210;-60
2023/05/31 05:39:21;;;;;;;3.15;1.30;;;;;;;17.79;39.08;101086.41;5100156;28;20208;-59
2023/05/31 05:41:49;;;;;;;2.70;1.38;;;;;;;17.95;38.77;101101.66;5110377;28;20203;-59
2023/05/31 05:44:18;;;;;;;2.88;1.50;;;;;;;18.14;38.73;101097.66;5102556;28;20212;-60
2023/05/31 05:46:46;;;;;;;3.33;1.45;;;;;;;18.42;38.29;101091.72;5110191;28;20212;-60
2023/05/31 05:49:14;;;;;;;6.00;1.50;;;;;;;18.58;37.22;101087.78;5103498;27;20500;-61
2023/05/31 05:51:44;;;;;;;5.18;1.42;;;;;;;18.77;36.19;101088.16;5105937;28;20288;-62
2023/05/31 05:54:12;;;;;;;4.10;1.13;;;;;;;18.91;35.95;101088.59;5110154;28;20200;-61
2023/05/31 05:56:40;;;;;;;2.75;1.00;;;;;;;19.08;34.93;101093.34;5108796;28;20209;-61
2023/05/31 05:59:08;;;;;;;2.17;1.10;;;;;;;19.16;34.18;101091.34;5109185;28;20208;-64
2023/05/31 06:01:38;;;;;;;2.00;0.95;;;;;;;19.19;33.32;101086.03;5107543;28;20588;-61
2023/05/31 06:04:05;;;;;;;2.17;1.10;;;;;;;19.26;33.29;101087.56;5105348;28;20230;-67
2023/05/31 06:06:33;;;;;;;4.43;1.42;;;;;;;19.39;32.93;101087.16;5100893;28;20729;-59
2023/05/31 06:09:01;;;;;;;3.90;1.35;;;;;;;19.46;33.22;101096.53;5106461;28;20555;-61
2023/05/31 06:11:29;;;;;;;4.22;1.35;;;;;;;19.56;33.55;101087.50;5112219;28;20547;-60
2023/05/31 06:13:57;;;;;;;2.80;1.15;;;;;;;19.76;33.04;101092.09;5112408;28;20638;-60
2023/05/31 06:16:25;;;;;;;4.95;1.38;;;;;;;19.94;32.92;101090.63;5110993;28;20662;-60
2023/05/31 06:18:55;;;;;;;3.13;1.38;;;;;;;20.12;32.78;101092.63;5109725;28;20204;-59
2023/05/31 06:21:23;;;;;;;1.80;1.23;;;;;;;20.29;32.02;101086.81;5102699;27;20496;-60
2023/05/31 06:23:51;;;;;;;1.55;1.20;;;;;;;20.40;31.13;101082.06;5107678;28;20218;-59
2023/05/31 06:26:18;;;;;;;4.85;1.65;;;;;;;20.39;30.76;101080.31;5113400;28;20731;-63
2023/05/31 06:28:46;;;;;;;3.40;1.42;;;;;;;20.43;31.30;101089.78;5110632;28;20203;-60
2023/05/31 06:31:15;;;;;;;8.80;1.80;;;;;;;20.54;31.12;101071.09;5110906;28;20742;-61
2023/05/31 06:33:42;;;;;;;1.50;1.27;;;;;;;20.76;30.52;101071.16;5112680;28;20228;-67
2023/05/31 06:36:12;;;;;;;2.38;1.20;;;;;;;20.97;29.58;101064.25;5108032;27;20522;-60
2023/05/31 06:38:40;;;;;;;3.47;1.33;;;;;;;21.08;28.01;101077.81;5107950;28;20211;-62
2023/05/31 06:41:07;;;;;;;6.50;1.20;;;;;;;21.07;26.99;101070.88;5105690;28;20220;-60
2023/05/31 06:43:35;;;;;;;2.92;1.23;;;;;;;21.01;26.38;101075.47;5104891;28;20223;-58
2023/05/31 06:46:07;;;;;;;7.03;1.33;;;;;;;21.02;26.45;101075.41;5111564;28;20226;-63
2023/05/31 06:48:35;;;;;;;4.45;1.15;;;;;;;21.03;26.29;101071.91;5104564;28;20204;-60
2023/05/31 06:51:02;;;;;;;8.77;1.40;;;;;;;21.02;26.90;101071.94;5111245;28;20196;-63
2023/05/31 06:53:32;;;;;;;2.22;1.48;;;;;;;21.15;26.92;101063.53;5110439;28;20663;-60
2023/05/31 06:56:00;;;;;;;6.93;1.50;;;;;;;21.28;25.90;101070.91;5111199;28;20600;-60
2023/05/31 06:58:31;;;;;;;4.80;1.67;;;;;;;21.28;26.44;101069.16;5109569;28;20242;-60
2023/05/31 07:00:59;;;;;;;4.00;1.05;;;;;;;21.34;26.15;101068.09;5103613;28;20713;-60
2023/05/31 07:03:27;;;;;;;2.33;1.33;;;;;;;21.44;25.67;101070.28;5101343;28;20629;-60
2023/05/31 07:05:55;;;;;;;3.30;1.40;;;;;;;21.52;24.61;101067.34;5109059;28;20196;-60
2023/05/31 07:08:23;;;;;;;1.70;0.82;;;;;;;21.54;23.92;101065.53;5103178;28;20311;-61
2023/05/31 07:10:53;;;;;;;1.55;0.98;;;;;;;21.55;22.59;101055.91;5109777;28;20271;-60
2023/05/31 07:13:22;;;;;;;2.47;1.23;;;;;;;;;;5104084;28;20607;-61
2023/05/31 07:15:50;;;;;;;2.55;1.17;;;;;;;21.53;23.12;101049.84;5109982;28;20197;-60
2023/05/31 07:18:18;;;;;;;5.13;1.05;;;;;;;21.54;23.80;101049.81;5104784;28;20207;-60
2023/05/31 07:20:46;;;;;;;2.15;1.38;;;;;;;21.66;24.29;101053.69;5111711;28;20235;-61
2023/05/31 07:23:14;;;;;;;2.85;1.27;;;;;;;21.69;24.19;101058.81;5112299;28;20658;-60
2023/05/31 07:25:42;;;;;;;7.22;1.35;;;;;;;21.70;24.78;101056.09;5112298;28;20207;-62
2023/05/31 07:28:12;;;;;;;3.83;1.50;;;;;;;21.89;25.08;101055.34;5112812;27;20239;-60
2023/05/31 07:30:40;;;;;;;6.13;1.48;;;;;;;22.06;24.63;101047.59;5111456;28;20705;-63
2023/05/31 07:33:08;;;;;;;2.50;1.30;;;;;;;22.22;24.34;101036.47;5108247;28;20244;-61
2023/05/31 07:35:36;;;;;;;3.67;1.30;;;;;;;22.32;23.60;101040.38;5110165;28;20207;-62
2023/05/31 07:38:04;;;;;;;4.57;1.48;;;;;;;22.46;23.42;101040.63;5109135;28;20687;-62
2023/05/31 07:40:32;;;;;;;3.47;1.42;;;;;;;22.53;23.43;101035.91;5111891;28;20210;-63
2023/05/31 07:43:00;;;;;;;4.13;1.17;;;;;;;22.48;22.74;101023.00;5111485;28;20547;-69
2023/05/31 07:45:29;;;;;;;4.78;1.17;;;;;;;22.43;22.30;101022.38;5112064;27;20283;-57
2023/05/31 07:47:58;;;;;;;2.78;1.20;;;;;;;22.46;23.25;101024.88;5110906;28;20210;-58
2023/05/31 07:50:26;;;;;;;5.03;1.20;;;;;;;22.35;22.38;101021.84;5108386;28;20646;-64
2023/05/31 07:52:54;;;;;;;3.28;1.30;;;;;;;22.17;22.77;101023.53;5111111;28;20203;-65
2023/05/31 07:55:22;;;;;;;3.55;1.17;;;;;;;22.11;23.05;101024.63;5111724;28;20199;-54
2023/05/31 07:57:50;;;;;;;2.50;1.25;;;;;;;21.88;23.69;101027.41;5107002;28;20446;-64
2023/05/31 08:00:18;;;;;;;6.03;0.82;;;;;;;21.59;22.85;101023.38;5108542;28;20233;-59
2023/05/31 08:02:47;;;;;;;3.42;1.10;;;;;;;21.29;22.94;101028.09;5107489;28;20311;-61
2023/05/31 08:05:16;;;;;;;1.52;1.15;;;;;;;21.02;23.31;101025.63;5108653;28;20268;-60
2023/05/31 08:07:44;;;;;;;3.00;1.00;;;;;;;20.76;23.04;101016.16;5106062;28;20203;-64
2023/05/31 08:10:12;;;;;;;1.63;1.00;;;;;;;20.58;23.31;101009.00;5108239;28;20222;-61
2023/05/31 08:12:40;;;;;;;3.15;1.13;;;;;;;20.46;24.30;101018.13;5108394;28;20643;-61
2023/05/31 08:15:10;;;;;;;1.83;1.15;;;;;;;20.39;23.84;101019.28;5110184;28;20334;-60
2023/05/31 08:17:38;;;;;;;1.52;0.80;;;;;;;20.21;23.19;101011.19;5112518;28;20279;-60
2023/05/31 08:20:10;;;;;;;1.83;1.08;;;;;;;20.08;22.98;101012.53;5109657;28;20242;-61
2023/05/31 08:22:38;;;;;;;2.10;0.88;;;;;;;20.03;22.40;101017.09;5111609;28;20291;-65
2023/05/31 08:25:07;;;;;;;2.53;1.10;;;;;;;20.01;22.61;101014.50;5100441;28;20211;-69
2023/05/31 08:27:35;;;;;;;0.98;0.80;;;;;;;20.01;21.47;101014.50;5109448;28;20195;-61
2023/05/31 08:30:04;;;;;;;4.28;1.00;;;;;;;20.00;22.45;101001.50;5103401;28;20224;-61
2023/05/31 08:32:32;;;;;;;1.70;0.90;;;;;;;20.05;23.55;101011.78;5108846;28;20227;-61
2023/05/31 08:35:00;;;;;;;9.07;1.20;;;;;;;20.03;23.86;101001.38;5097662;28;20208;-64
2023/05/31 08:37:30;;;;;;;0.82;0.63;;;;;;;20.02;24.15;101010.13;5109788;28;20243;-63
2023/05/31 08:39:58;;;;;;;0.95;0.70;;;;;;;20.08;24.40;101004.69;5109830;28;20204;-61
2023/05/31 08:42:29;;;;;;;3.70;1.40;;;;;;;20.11;24.44;100999.34;5107575;28;20955;-61
2023/05/31 08:44:57;;;;;;;2.05;0.82;;;;;;;20.09;23.90;100995.91;5110945;28;20204;-61
2023/05/31 08:47:32;;;;;;;2.42;0.90;;;;;;;20.11;23.87;100999.34;5102617;28;20203;-60
2023/05/31 08:50:01;;;;;;;2.42;0.88;;;;;;;20.15;23.78;101000.94;5104997;28;20260;-61
2023/05/31 08:52:32;;;;;;;1.08;0.95;;;;;;;20.19;24.00;100991.22;5103720;28;20635;-62
2023/05/31 08:55:02;;;;;;;1.30;0.88;;;;;;;20.22;23.65;100991.97;5104293;28;20204;-62
2023/05/31 08:57:33;;;;;;;1.10;0.77;;;;;;;20.24;23.33;100991.88;5110466;28;20229;-61
2023/05/31 09:00:08;;;;;;;1.25;0.80;;;;;;;20.24;22.70;100995.34;5107732;28;20280;-68
2023/05/31 09:02:36;;;;;;;0.77;0.75;;;;;;;20.18;22.04;100994.75;5111416;28;20311;-62
2023/05/31 09:05:10;;;;;;;2.15;0.90;;;;;;;20.11;21.51;100995.88;5109470;28;20234;-61
2023/05/31 09:07:40;;;;;;;2.05;1.02;;;;;;;20.04;21.27;100995.25;5106762;27;20295;-61
2023/05/31 09:10:09;;;;;;;0.88;0.80;;;;;;;20.08;21.43;101007.31;5105278;28;20200;-62
2023/05/31 09:12:37;;;;;;;0.88;0.88;;;;;;;20.12;21.33;101005.44;5105327;27;20660;-62
2023/05/31 09:15:07;;;;;;;1.17;0.77;;;;;;;20.18;21.72;101000.84;5105368;28;20548;-61
2023/05/31 09:17:34;;;;;;;0.95;0.82;;;;;;;20.26;21.70;101004.03;5107365;28;20211;-60
2023/05/31 09:20:03;;;;;;;2.33;1.17;;;;;;;20.31;21.65;100997.75;5100095;28;20227;-59
2023/05/31 09:22:31;;;;;;;1.63;1.13;;;;;;;20.39;22.56;100999.19;5111133;28;20549;-61
2023/05/31 09:25:01;;;;;;;0.93;0.80;;;;;;;20.49;22.52;100991.84;5109284;28;20211;-61
2023/05/31 09:27:35;;;;;;;1.45;0.80;;;;;;;20.60;22.52;100996.72;5100985;28;20287;-63
2023/05/31 09:30:06;;;;;;;3.63;0.90;;;;;;;20.71;22.25;100990.16;5104255;28;20207;-61
2023/05/31 09:32:35;;;;;;;2.28;0.80;;;;;;;20.78;22.54;100982.91;5097802;28;20239;-62
2023/05/31 09:35:13;;;;;;;3.35;1.13;;;;;;;20.85;22.79;100986.16;5109590;28;20203;-61
2023/05/31 09:37:46;;;;;;;2.72;0.70;;;;;;;20.83;22.24;100982.72;5104524;28;20682;-61
2023/05/31 09:40:16;;;;;;;3.08;1.00;;;;;;;20.82;21.98;100981.88;5111661;28;20203;-64
2023/05/31 09:42:48;;;;;;;2.15;1.70;;;;;;;20.82;21.96;100988.88;5100114;28;20216;-61
2023/05/31 09:45:16;;;;;;;2.45;1.20;;;;;;;20.79;21.72;100981.13;5099255;28;20215;-62
2023/05/31 09:47:45;;;;;;;0.70;0.60;;;;;;;20.75;21.80;100986.50;5103884;28;20240;-62
2023/05/31 09:50:16;;;;;;;1.67;1.00;;;;;;;20.78;21.90;100984.69;5104805;28;20200;-61
2023/05/31 09:52:45;;;;;;;3.45;0.90;;;;;;;20.84;21.57;100979.19;5110323;28;20284;-60
2023/05/31 09:55:15;;;;;;;1.67;0.75;;;;;;;21.01;21.02;100979.38;5108487;28;20685;-62
2023/05/31 09:57:45;;;;;;;4.28;1.20;;;;;;;21.17;20.78;100977.84;5110176;28;20209;-61
2023/05/31 10:00:15;;;;;;;1.98;0.80;;;;;;;21.37;19.93;100977.06;5112622;28;20215;-61
2023/05/31 10:02:44;;;;;;;2.70;0.90;;;;;;;21.54;19.52;100970.25;5101065;28;20741;-60
2023/05/31 10:05:14;;;;;;;3.33;0.90;;;;;;;21.86;19.30;100964.47;5105361;28;20208;-61
2023/05/31 10:07:44;;;;;;;0.85;0.73;;;;;;;22.48;18.90;100964.38;5105416;28;20216;-59
2023/05/31 10:10:13;;;;;;;1.20;0.90;;;;;;;23.34;17.98;100958.47;5109002;28;20579;-61
2023/05/31 10:12:50;;;;;;;1.35;0.82;;;;;;;24.51;16.61;100961.16;5102487;28;20666;-61
2023/05/31 10:15:22;;;;;;;1.63;1.08;;;;;;;25.71;15.45;100948.09;5107835;28;20739;-59
2023/05/31 10:17:58;;;;;;;1.30;0.90;;;;;;;26.74;14.72;100942.56;5110383;28;20204;-61
2023/05/31 10:20:32;;;;;;;1.95;1.08;;;;;;;27.80;14.15;100938.16;5111991;28;20245;-60
2023/05/31 10:23:02;;;;;;;2.67;0.90;;;;;;;28.80;12.99;100941.66;5111785;28;20219;-60
2023/05/31 10:25:35;;;;;;;1.38;0.70;;;;;;;29.40;12.83;100931.88;5110895;28;20196;-60
2023/05/31 10:28:10;;;;;;;1.60;1.02;;;;;;;29.98;12.56;100943.34;5111075;28;20200;-62
2023/05/31 10:30:41;;;;;;;2.30;1.70;;;;;;;30.63;12.54;100934.53;5106412;28;20651;-60
2023/05/31 10:33:12;;;;;;;2.67;1.45;;;;;;;31.27;11.94;100942.53;5110474;28;20259;-61
2023/05/31 10:35:41;;;;;;;4.70;1.13;;;;;;;32.06;12.00;100939.34;5108545;28;20200;-61
2023/05/31 10:38:10;;;;;;;1.45;1.00;;;;;;;32.78;10.90;100932.09;5112042;28;20214;-61
2023/05/31 10:40:44;;;;;;;1.10;0.75;;;;;;;33.16;9.89;100928.59;5106431;27;20207;-60
2023/05/31 10:43:22;;;;;;;1.95;0.80;;;;;;;33.37;9.94;100925.75;5100141;28;20302;-60
2023/05/31 10:45:55;;;;;;;3.22;0.80;;;;;;;33.87;9.51;100930.81;5107707;28;20227;-62
2023/05/31 10:48:32;;;;;;;3.20;0.95;;;;;;;34.34;9.37;100923.53;5097904;28;20662;-61
2023/05/31 10:51:01;;;;;;;1.15;0.82;;;;;;;34.57;9.25;100926.66;5098412;28;20222;-62
2023/05/31 10:53:31;;;;;;;0.90;0.80;;;;;;;34.60;8.82;100926.34;5108289;28;20780;-60
2023/05/31 10:56:04;;;;;;;9.23;8.00;;;;;;;34.29;8.92;100919.66;5109335;28;20279;-61
2023/05/31 10:58:37;;;;;;;3.42;1.02;;;;;;;33.95;9.57;100922.03;5111772;28;20706;-61
2023/05/31 11:01:08;;;;;;;1.40;0.88;;;;;;;33.48;10.15;100925.59;5101248;28;20210;-61
2023/05/31 11:03:37;;;;;;;3.15;0.80;;;;;;;32.69;10.71;100929.25;5108042;27;21389;-61
2023/05/31 11:06:11;;;;;;;1.25;0.98;;;;;;;32.34;11.06;100919.09;5103312;28;20231;-64
2023/05/31 11:08:39;;;;;;;1.90;0.82;;;;;;;32.30;10.86;100917.69;5104299;28;20200;-62
2023/05/31 11:11:27;;;;;;;3.08;0.80;;;;;;;32.65;10.34;100922.53;5108414;28;20660;-62
2023/05/31 11:14:01;;;;;;;1.05;0.70;;;;;;;33.02;10.50;100913.00;5107957;28;20200;-62
2023/05/31 11:16:32;;;;;;;4.60;1.00;;;;;;;33.23;10.10;100916.34;5106499;28;20207;-62
2023/05/31 11:19:06;;;;;;;1.10;0.98;;;;;;;33.07;10.19;100900.91;5103170;28;20675;-62
2023/05/31 11:21:47;;;;;;;1.85;1.15;;;;;;;32.73;10.00;100916.47;5103901;28;20200;-62
2023/05/31 11:24:29;;;;;;;3.55;0.95;;;;;;;32.08;10.88;100900.06;5110381;28;20246;-61
2023/05/31 11:26:59;;;;;;;2.08;0.90;;;;;;;31.67;11.16;100899.19;5099625;28;20658;-60
2023/05/31 11:30:01;;;;;;;1.70;1.08;;;;;;;31.54;11.88;100903.06;5097303;28;20203;-59
2023/05/31 11:32:58;;;;;;;1.00;0.93;;;;;;;31.28;11.44;100892.78;5103674;28;20314;-60
2023/05/31 11:35:26;;;;;;;1.25;1.15;;;;;;;30.92;12.06;100902.06;5098323;28;20299;-62
2023/05/31 11:38:05;;;;;;;2.58;1.00;;;;;;;30.54;11.58;100896.25;5099948;28;20208;-66